Nichiryu Maru — JG5632 — position and weather

sailwx.info

Track history (hours):
 
Tides and Currents Weather Stations Pressure Air Temp Water Temp Dewpoint Dewpoint Depression Visibility Wind Speed Wind Dir Waves Ship Positions

Nichiryu Maru

Last reported at 2017-Mar-24 17:18 UTC. Time now 2017-Mar-24 20:01 UTC.
Position N 33°44' E 132°14'.

Length 158 m; draft 6.5 m.

Type: Cargo ship. MMSI: 43100939.

Date/timePositionNaut miles runAvg speedWind from/ knotsBaromVisibWave heightAir tempDewpointWater temp
2017-Mar-24 17:18N 33°44' E 132°14'1418.6
2017-Mar-24 16:33N 33°49' E 132°30'1919.0
2017-Mar-24 15:33N 34°03' E 132°46'11816.9
2017-Mar-24 08:33N 34°36' E 135°03'10 9.8
2017-Mar-24 07:33N 34°41' E 135°14'0 0.1
2017-Mar-24 06:33N 34°41' E 135°13'0 0.0
2017-Mar-24 05:33N 34°41' E 135°13'0 0.0
2017-Mar-24 04:33N 34°41' E 135°13'1 1.4
2017-Mar-24 03:33N 34°40' E 135°15'1616.5
2017-Mar-24 02:34N 34°25' E 135°07'1716.8
2017-Mar-24 01:34N 34°09' E 135°01'23416.2
2017-Mar-23 11:07N 35°03' E 139°37'1018.1
2017-Mar-23 10:33N 35°10' E 139°45'1010.0
2017-Mar-23 09:33N 35°19' E 139°39'0 0.0
2017-Mar-23 08:19N 35°19' E 139°39'0 0.0
2017-Mar-23 07:31N 35°19' E 139°39'0 0.0
2017-Mar-23 06:31N 35°19' E 139°39'0 0.0
2017-Mar-23 05:31N 35°19' E 139°39'0 0.0
2017-Mar-23 04:31N 35°19' E 139°39'0 0.1
2017-Mar-23 03:34N 35°19' E 139°39'10 9.6
2017-Mar-23 02:33N 35°11' E 139°46'39817.9
2017-Mar-22 04:22N 33°10' E 132°08'379 9.3
2017-Mar-20 11:30N 34°58' E 139°27'1717.9
2017-Mar-20 10:33N 35°08' E 139°44'1111.5
2017-Mar-20 09:33N 35°19' E 139°42'2 2.1
2017-Mar-20 08:33N 35°19' E 139°39'0 0.0
2017-Mar-20 07:33N 35°19' E 139°39'0 0.0
2017-Mar-20 06:33N 35°19' E 139°39'0 0.0
2017-Mar-20 05:33N 35°19' E 139°39'0 0.0
2017-Mar-20 04:33N 35°19' E 139°39'0 0.0
2017-Mar-20 03:33N 35°19' E 139°39'0 0.0
2017-Mar-20 02:33N 35°19' E 139°39'0 0.0
2017-Mar-20 01:33N 35°19' E 139°39'0 0.0
2017-Mar-20 00:33N 35°19' E 139°39'0 0.0
2017-Mar-19 23:33N 35°19' E 139°39'2 1.6
2017-Mar-19 22:23N 35°19' E 139°41'0 0.1
2017-Mar-19 21:32N 35°19' E 139°41'0 0.1
2017-Mar-19 20:32N 35°19' E 139°41'0 0.0
2017-Mar-19 19:32N 35°19' E 139°41'0 0.1
2017-Mar-19 18:32N 35°19' E 139°41'0 0.0
2017-Mar-19 17:32N 35°19' E 139°41'0 0.0
2017-Mar-19 16:32N 35°19' E 139°41'0 0.0
2017-Mar-19 15:32N 35°19' E 139°41'0 0.0
2017-Mar-19 14:32N 35°19' E 139°41'0 0.0
2017-Mar-19 13:32N 35°19' E 139°41'0 0.3
2017-Mar-19 12:33N 35°20' E 139°42'1212.3
2017-Mar-19 11:33N 35°08' E 139°45'239 4.8
2017-Mar-17 09:29N 34°37' E 134°56'1516.6
2017-Mar-17 08:33N 34°38' E 135°15'3 3.0
2017-Mar-17 07:28N 34°41' E 135°13'0 0.0
2017-Mar-17 06:28N 34°41' E 135°13'0 0.0
2017-Mar-17 05:28N 34°41' E 135°13'0 0.0
2017-Mar-17 04:22N 34°41' E 135°13'0 0.1
2017-Mar-17 03:34N 34°41' E 135°14'1313.4
2017-Mar-17 02:33N 34°28' E 135°09'1919.0
2017-Mar-17 01:33N 34°11' E 134°60'22716.1
2017-Mar-16 11:26N 34°57' E 139°30'1719.2
2017-Mar-16 10:33N 35°09' E 139°44'1111.0
2017-Mar-16 09:33N 35°19' E 139°40'1 0.5
2017-Mar-16 08:32N 35°19' E 139°39'0 0.0
2017-Mar-16 07:32N 35°19' E 139°39'0 0.0
2017-Mar-16 06:32N 35°19' E 139°39'0 0.0
2017-Mar-16 05:32N 35°19' E 139°39'0 0.0
2017-Mar-16 04:32N 35°19' E 139°39'0 0.1
2017-Mar-16 03:33N 35°19' E 139°39'10 9.7
2017-Mar-16 02:33N 35°11' E 139°47'1919.0
2017-Mar-16 01:33N 34°57' E 139°31'  
Track history (hours):
 
Tides and Currents Weather Stations Pressure Air Temp Water Temp Dewpoint Dewpoint Depression Visibility Wind Speed Wind Dir Waves Ship Positions

Nichiryu Maru

Last reported at 2017-Mar-24 17:18 UTC. Time now 2017-Mar-24 20:01 UTC.
Position N 33°44' E 132°14'.

Length 158 m; draft 6.5 m.

Type: Cargo ship. MMSI: 43100939.

Date/timePositionNaut miles runAvg speedWind from/ knotsBaromVisibWave heightAir tempDewpointWater temp
2017-Mar-24 17:18N 33°44' E 132°14'1418.6
2017-Mar-24 16:33N 33°49' E 132°30'1919.0
2017-Mar-24 15:33N 34°03' E 132°46'11816.9
2017-Mar-24 08:33N 34°36' E 135°03'10 9.8
2017-Mar-24 07:33N 34°41' E 135°14'0 0.1
2017-Mar-24 06:33N 34°41' E 135°13'0 0.0
2017-Mar-24 05:33N 34°41' E 135°13'0 0.0
2017-Mar-24 04:33N 34°41' E 135°13'1 1.4
2017-Mar-24 03:33N 34°40' E 135°15'1616.5
2017-Mar-24 02:34N 34°25' E 135°07'1716.8
2017-Mar-24 01:34N 34°09' E 135°01'23416.2
2017-Mar-23 11:07N 35°03' E 139°37'1018.1
2017-Mar-23 10:33N 35°10' E 139°45'1010.0
2017-Mar-23 09:33N 35°19' E 139°39'0 0.0
2017-Mar-23 08:19N 35°19' E 139°39'0 0.0
2017-Mar-23 07:31N 35°19' E 139°39'0 0.0
2017-Mar-23 06:31N 35°19' E 139°39'0 0.0
2017-Mar-23 05:31N 35°19' E 139°39'0 0.0
2017-Mar-23 04:31N 35°19' E 139°39'0 0.1
2017-Mar-23 03:34N 35°19' E 139°39'10 9.6
2017-Mar-23 02:33N 35°11' E 139°46'39817.9
2017-Mar-22 04:22N 33°10' E 132°08'379 9.3
2017-Mar-20 11:30N 34°58' E 139°27'1717.9
2017-Mar-20 10:33N 35°08' E 139°44'1111.5
2017-Mar-20 09:33N 35°19' E 139°42'2 2.1
2017-Mar-20 08:33N 35°19' E 139°39'0 0.0
2017-Mar-20 07:33N 35°19' E 139°39'0 0.0
2017-Mar-20 06:33N 35°19' E 139°39'0 0.0
2017-Mar-20 05:33N 35°19' E 139°39'0 0.0
2017-Mar-20 04:33N 35°19' E 139°39'0 0.0
2017-Mar-20 03:33N 35°19' E 139°39'0 0.0
2017-Mar-20 02:33N 35°19' E 139°39'0 0.0
2017-Mar-20 01:33N 35°19' E 139°39'0 0.0
2017-Mar-20 00:33N 35°19' E 139°39'0 0.0
2017-Mar-19 23:33N 35°19' E 139°39'2 1.6
2017-Mar-19 22:23N 35°19' E 139°41'0 0.1
2017-Mar-19 21:32N 35°19' E 139°41'0 0.1
2017-Mar-19 20:32N 35°19' E 139°41'0 0.0
2017-Mar-19 19:32N 35°19' E 139°41'0 0.1
2017-Mar-19 18:32N 35°19' E 139°41'0 0.0
2017-Mar-19 17:32N 35°19' E 139°41'0 0.0
2017-Mar-19 16:32N 35°19' E 139°41'0 0.0
2017-Mar-19 15:32N 35°19' E 139°41'0 0.0
2017-Mar-19 14:32N 35°19' E 139°41'0 0.0
2017-Mar-19 13:32N 35°19' E 139°41'0 0.3
2017-Mar-19 12:33N 35°20' E 139°42'1212.3
2017-Mar-19 11:33N 35°08' E 139°45'239 4.8
2017-Mar-17 09:29N 34°37' E 134°56'1516.6
2017-Mar-17 08:33N 34°38' E 135°15'3 3.0
2017-Mar-17 07:28N 34°41' E 135°13'0 0.0
2017-Mar-17 06:28N 34°41' E 135°13'0 0.0
2017-Mar-17 05:28N 34°41' E 135°13'0 0.0
2017-Mar-17 04:22N 34°41' E 135°13'0 0.1
2017-Mar-17 03:34N 34°41' E 135°14'1313.4
2017-Mar-17 02:33N 34°28' E 135°09'1919.0
2017-Mar-17 01:33N 34°11' E 134°60'22716.1
2017-Mar-16 11:26N 34°57' E 139°30'1719.2
2017-Mar-16 10:33N 35°09' E 139°44'1111.0
2017-Mar-16 09:33N 35°19' E 139°40'1 0.5
2017-Mar-16 08:32N 35°19' E 139°39'0 0.0
2017-Mar-16 07:32N 35°19' E 139°39'0 0.0
2017-Mar-16 06:32N 35°19' E 139°39'0 0.0
2017-Mar-16 05:32N 35°19' E 139°39'0 0.0
2017-Mar-16 04:32N 35°19' E 139°39'0 0.1
2017-Mar-16 03:33N 35°19' E 139°39'10 9.7
2017-Mar-16 02:33N 35°11' E 139°47'1919.0
2017-Mar-16 01:33N 34°57' E 139°31'  

Dump ship's entire track history